sensor_id;sensor_type;location;lat;lon;timestamp;P1;durP1;ratioP1;P2;durP2;ratioP2
23519;SDS011;11936;50.820;4.336;2023-02-15T00:00:18;73.07;;;42.70;;
23519;SDS011;11936;50.820;4.336;2023-02-15T00:02:44;67.85;;;38.05;;
23519;SDS011;11936;50.820;4.336;2023-02-15T00:05:09;63.53;;;38.38;;
23519;SDS011;11936;50.820;4.336;2023-02-15T00:07:35;62.63;;;36.33;;
23519;SDS011;11936;50.820;4.336;2023-02-15T00:10:01;59.83;;;38.30;;
23519;SDS011;11936;50.820;4.336;2023-02-15T00:12:27;59.22;;;34.83;;
23519;SDS011;11936;50.820;4.336;2023-02-15T00:14:53;61.10;;;36.13;;
23519;SDS011;11936;50.820;4.336;2023-02-15T00:17:19;71.40;;;39.97;;
23519;SDS011;11936;50.820;4.336;2023-02-15T00:19:44;80.50;;;42.47;;
23519;SDS011;11936;50.820;4.336;2023-02-15T00:22:10;72.47;;;41.47;;
23519;SDS011;11936;50.820;4.336;2023-02-15T00:24:35;71.22;;;39.35;;
23519;SDS011;11936;50.820;4.336;2023-02-15T00:27:01;67.50;;;38.90;;
23519;SDS011;11936;50.820;4.336;2023-02-15T00:29:26;62.58;;;37.97;;
23519;SDS011;11936;50.820;4.336;2023-02-15T00:31:53;66.45;;;38.55;;
23519;SDS011;11936;50.820;4.336;2023-02-15T00:34:22;58.97;;;35.03;;
23519;SDS011;11936;50.820;4.336;2023-02-15T00:36:50;57.55;;;33.95;;
23519;SDS011;11936;50.820;4.336;2023-02-15T00:39:16;55.28;;;30.50;;
23519;SDS011;11936;50.820;4.336;2023-02-15T00:41:42;52.05;;;29.58;;
23519;SDS011;11936;50.820;4.336;2023-02-15T00:44:10;54.38;;;29.33;;
23519;SDS011;11936;50.820;4.336;2023-02-15T00:46:36;48.50;;;28.48;;
23519;SDS011;11936;50.820;4.336;2023-02-15T00:49:02;53.75;;;29.08;;
23519;SDS011;11936;50.820;4.336;2023-02-15T00:51:28;50.90;;;27.60;;
23519;SDS011;11936;50.820;4.336;2023-02-15T00:53:54;47.97;;;28.75;;
23519;SDS011;11936;50.820;4.336;2023-02-15T00:56:19;51.20;;;28.60;;
23519;SDS011;11936;50.820;4.336;2023-02-15T00:58:45;52.25;;;28.98;;
23519;SDS011;11936;50.820;4.336;2023-02-15T01:01:12;49.97;;;29.25;;
23519;SDS011;11936;50.820;4.336;2023-02-15T01:03:40;46.53;;;28.52;;
23519;SDS011;11936;50.820;4.336;2023-02-15T01:06:07;52.03;;;29.70;;
23519;SDS011;11936;50.820;4.336;2023-02-15T01:08:32;47.05;;;28.52;;
23519;SDS011;11936;50.820;4.336;2023-02-15T01:11:03;55.78;;;31.42;;
23519;SDS011;11936;50.820;4.336;2023-02-15T01:13:30;57.47;;;32.28;;
23519;SDS011;11936;50.820;4.336;2023-02-15T01:15:56;57.70;;;34.78;;
23519;SDS011;11936;50.820;4.336;2023-02-15T01:18:22;61.60;;;37.22;;
23519;SDS011;11936;50.820;4.336;2023-02-15T01:20:47;71.75;;;40.22;;
23519;SDS011;11936;50.820;4.336;2023-02-15T01:23:14;64.80;;;38.50;;
23519;SDS011;11936;50.820;4.336;2023-02-15T01:25:40;58.90;;;37.55;;
23519;SDS011;11936;50.820;4.336;2023-02-15T01:28:05;64.05;;;38.17;;
23519;SDS011;11936;50.820;4.336;2023-02-15T01:30:31;64.60;;;37.75;;
23519;SDS011;11936;50.820;4.336;2023-02-15T01:32:58;68.05;;;38.38;;
23519;SDS011;11936;50.820;4.336;2023-02-15T01:35:25;61.38;;;35.42;;
23519;SDS011;11936;50.820;4.336;2023-02-15T01:37:52;60.60;;;36.85;;
23519;SDS011;11936;50.820;4.336;2023-02-15T01:40:18;56.22;;;34.45;;
23519;SDS011;11936;50.820;4.336;2023-02-15T01:42:44;61.28;;;34.92;;
23519;SDS011;11936;50.820;4.336;2023-02-15T01:45:29;55.95;;;34.38;;
23519;SDS011;11936;50.820;4.336;2023-02-15T01:50:41;58.45;;;34.00;;
23519;SDS011;11936;50.820;4.336;2023-02-15T01:55:58;50.47;;;28.30;;
23519;SDS011;11936;50.820;4.336;2023-02-15T01:58:34;52.97;;;29.20;;
23519;SDS011;11936;50.820;4.336;2023-02-15T02:01:01;47.38;;;28.95;;
23519;SDS011;11936;50.820;4.336;2023-02-15T02:03:41;52.15;;;28.10;;
23519;SDS011;11936;50.820;4.336;2023-02-15T02:06:11;46.13;;;26.17;;
23519;SDS011;11936;50.820;4.336;2023-02-15T02:08:37;44.97;;;26.00;;
23519;SDS011;11936;50.820;4.336;2023-02-15T02:11:08;43.25;;;25.67;;
23519;SDS011;11936;50.820;4.336;2023-02-15T02:13:39;43.70;;;24.55;;
23519;SDS011;11936;50.820;4.336;2023-02-15T02:24:48;47.55;;;24.58;;
23519;SDS011;11936;50.820;4.336;2023-02-15T02:32:58;44.15;;;24.17;;
23519;SDS011;11936;50.820;4.336;2023-02-15T02:35:51;47.45;;;25.38;;
23519;SDS011;11936;50.820;4.336;2023-02-15T02:39:19;41.40;;;24.35;;
23519;SDS011;11936;50.820;4.336;2023-02-15T02:41:36;45.70;;;24.70;;
23519;SDS011;11936;50.820;4.336;2023-02-15T02:44:09;44.08;;;24.65;;
23519;SDS011;11936;50.820;4.336;2023-02-15T02:49:11;45.38;;;25.15;;
23519;SDS011;11936;50.820;4.336;2023-02-15T02:51:36;46.97;;;25.63;;
23519;SDS011;11936;50.820;4.336;2023-02-15T02:54:03;40.58;;;23.95;;
23519;SDS011;11936;50.820;4.336;2023-02-15T02:56:37;44.33;;;24.40;;
23519;SDS011;11936;50.820;4.336;2023-02-15T02:59:17;48.28;;;24.52;;
23519;SDS011;11936;50.820;4.336;2023-02-15T03:01:51;43.83;;;26.10;;
23519;SDS011;11936;50.820;4.336;2023-02-15T03:04:24;42.50;;;26.02;;
23519;SDS011;11936;50.820;4.336;2023-02-15T03:09:33;51.92;;;27.65;;
23519;SDS011;11936;50.820;4.336;2023-02-15T03:12:07;45.38;;;25.60;;
23519;SDS011;11936;50.820;4.336;2023-02-15T03:14:42;43.58;;;27.23;;
23519;SDS011;11936;50.820;4.336;2023-02-15T03:17:10;48.17;;;27.50;;
23519;SDS011;11936;50.820;4.336;2023-02-15T03:19:37;39.47;;;24.92;;
23519;SDS011;11936;50.820;4.336;2023-02-15T03:22:15;47.92;;;28.50;;
23519;SDS011;11936;50.820;4.336;2023-02-15T03:25:06;47.40;;;26.73;;
23519;SDS011;11936;50.820;4.336;2023-02-15T03:30:23;46.70;;;25.30;;
23519;SDS011;11936;50.820;4.336;2023-02-15T03:32:51;45.40;;;25.63;;
23519;SDS011;11936;50.820;4.336;2023-02-15T03:35:19;43.05;;;25.08;;
23519;SDS011;11936;50.820;4.336;2023-02-15T03:37:51;40.60;;;24.98;;
23519;SDS011;11936;50.820;4.336;2023-02-15T03:40:29;46.42;;;26.35;;
23519;SDS011;11936;50.820;4.336;2023-02-15T03:46:00;44.17;;;26.98;;
23519;SDS011;11936;50.820;4.336;2023-02-15T03:48:35;44.03;;;26.13;;
23519;SDS011;11936;50.820;4.336;2023-02-15T03:51:10;48.20;;;28.50;;
23519;SDS011;11936;50.820;4.336;2023-02-15T03:53:58;42.60;;;25.80;;
23519;SDS011;11936;50.820;4.336;2023-02-15T03:56:28;46.38;;;25.17;;
23519;SDS011;11936;50.820;4.336;2023-02-15T03:58:54;49.60;;;27.98;;
23519;SDS011;11936;50.820;4.336;2023-02-15T04:01:53;45.67;;;27.58;;
23519;SDS011;11936;50.820;4.336;2023-02-15T04:04:33;46.33;;;26.45;;
23519;SDS011;11936;50.820;4.336;2023-02-15T04:07:00;44.90;;;27.23;;
23519;SDS011;11936;50.820;4.336;2023-02-15T04:09:27;43.95;;;26.33;;
23519;SDS011;11936;50.820;4.336;2023-02-15T04:12:10;49.25;;;28.10;;
23519;SDS011;11936;50.820;4.336;2023-02-15T04:14:36;48.20;;;25.92;;
23519;SDS011;11936;50.820;4.336;2023-02-15T04:17:20;48.08;;;27.10;;
23519;SDS011;11936;50.820;4.336;2023-02-15T04:19:46;45.28;;;25.92;;
23519;SDS011;11936;50.820;4.336;2023-02-15T04:22:30;38.70;;;24.88;;
23519;SDS011;11936;50.820;4.336;2023-02-15T04:25:14;41.80;;;26.65;;
23519;SDS011;11936;50.820;4.336;2023-02-15T04:27:58;45.15;;;25.75;;
23519;SDS011;11936;50.820;4.336;2023-02-15T04:30:25;43.42;;;27.52;;
23519;SDS011;11936;50.820;4.336;2023-02-15T04:32:51;44.30;;;26.60;;
23519;SDS011;11936;50.820;4.336;2023-02-15T04:35:22;41.88;;;26.40;;
23519;SDS011;11936;50.820;4.336;2023-02-15T04:37:47;44.75;;;26.83;;
23519;SDS011;11936;50.820;4.336;2023-02-15T04:40:13;43.63;;;26.85;;
23519;SDS011;11936;50.820;4.336;2023-02-15T04:42:40;47.20;;;26.92;;
23519;SDS011;11936;50.820;4.336;2023-02-15T04:45:06;42.40;;;26.15;;
23519;SDS011;11936;50.820;4.336;2023-02-15T04:47:31;42.92;;;26.40;;
23519;SDS011;11936;50.820;4.336;2023-02-15T04:49:57;42.53;;;26.33;;
23519;SDS011;11936;50.820;4.336;2023-02-15T04:52:23;45.22;;;27.20;;
23519;SDS011;11936;50.820;4.336;2023-02-15T04:54:49;45.15;;;26.17;;
23519;SDS011;11936;50.820;4.336;2023-02-15T04:57:14;43.75;;;26.45;;
23519;SDS011;11936;50.820;4.336;2023-02-15T04:59:40;44.78;;;26.35;;
23519;SDS011;11936;50.820;4.336;2023-02-15T05:02:06;43.05;;;26.67;;
23519;SDS011;11936;50.820;4.336;2023-02-15T05:04:31;42.20;;;26.02;;
23519;SDS011;11936;50.820;4.336;2023-02-15T05:06:57;50.92;;;28.88;;
23519;SDS011;11936;50.820;4.336;2023-02-15T05:09:23;48.65;;;28.20;;
23519;SDS011;11936;50.820;4.336;2023-02-15T05:11:48;49.22;;;28.95;;
23519;SDS011;11936;50.820;4.336;2023-02-15T05:14:14;46.22;;;26.67;;
23519;SDS011;11936;50.820;4.336;2023-02-15T05:16:39;46.35;;;27.10;;
23519;SDS011;11936;50.820;4.336;2023-02-15T05:19:05;54.90;;;29.23;;
23519;SDS011;11936;50.820;4.336;2023-02-15T05:21:31;57.78;;;29.67;;
23519;SDS011;11936;50.820;4.336;2023-02-15T05:23:57;52.75;;;28.42;;
23519;SDS011;11936;50.820;4.336;2023-02-15T05:26:23;46.28;;;27.45;;
23519;SDS011;11936;50.820;4.336;2023-02-15T05:29:08;52.78;;;30.02;;
23519;SDS011;11936;50.820;4.336;2023-02-15T05:31:35;48.05;;;29.05;;
23519;SDS011;11936;50.820;4.336;2023-02-15T05:34:01;51.30;;;29.10;;
23519;SDS011;11936;50.820;4.336;2023-02-15T05:36:27;47.45;;;28.00;;
23519;SDS011;11936;50.820;4.336;2023-02-15T05:38:53;50.13;;;29.88;;
23519;SDS011;11936;50.820;4.336;2023-02-15T05:41:19;48.80;;;28.30;;
23519;SDS011;11936;50.820;4.336;2023-02-15T05:43:45;46.38;;;27.35;;
23519;SDS011;11936;50.820;4.336;2023-02-15T05:46:10;48.10;;;27.80;;
23519;SDS011;11936;50.820;4.336;2023-02-15T05:48:37;47.88;;;28.10;;
23519;SDS011;11936;50.820;4.336;2023-02-15T05:51:04;51.33;;;28.15;;
23519;SDS011;11936;50.820;4.336;2023-02-15T05:53:35;47.00;;;27.80;;
23519;SDS011;11936;50.820;4.336;2023-02-15T05:56:03;43.72;;;27.80;;
23519;SDS011;11936;50.820;4.336;2023-02-15T05:58:31;46.50;;;28.13;;
23519;SDS011;11936;50.820;4.336;2023-02-15T06:00:58;44.88;;;25.65;;
23519;SDS011;11936;50.820;4.336;2023-02-15T06:03:24;42.42;;;25.67;;
23519;SDS011;11936;50.820;4.336;2023-02-15T06:05:53;48.55;;;30.08;;
23519;SDS011;11936;50.820;4.336;2023-02-15T06:08:19;46.75;;;27.25;;
23519;SDS011;11936;50.820;4.336;2023-02-15T06:10:45;46.70;;;26.70;;
23519;SDS011;11936;50.820;4.336;2023-02-15T06:13:11;42.28;;;26.50;;
23519;SDS011;11936;50.820;4.336;2023-02-15T06:15:37;49.25;;;27.70;;
23519;SDS011;11936;50.820;4.336;2023-02-15T06:18:03;42.67;;;26.00;;
23519;SDS011;11936;50.820;4.336;2023-02-15T06:20:28;41.92;;;26.95;;
23519;SDS011;11936;50.820;4.336;2023-02-15T06:22:54;57.03;;;26.30;;
23519;SDS011;11936;50.820;4.336;2023-02-15T06:25:19;52.90;;;26.33;;
23519;SDS011;11936;50.820;4.336;2023-02-15T06:27:46;45.92;;;27.40;;
23519;SDS011;11936;50.820;4.336;2023-02-15T06:30:12;45.47;;;25.88;;
23519;SDS011;11936;50.820;4.336;2023-02-15T06:32:38;42.13;;;25.35;;
23519;SDS011;11936;50.820;4.336;2023-02-15T06:35:05;39.88;;;24.92;;
23519;SDS011;11936;50.820;4.336;2023-02-15T06:37:31;45.85;;;25.73;;
23519;SDS011;11936;50.820;4.336;2023-02-15T06:39:57;44.15;;;26.75;;
23519;SDS011;11936;50.820;4.336;2023-02-15T06:42:22;48.25;;;27.00;;
23519;SDS011;11936;50.820;4.336;2023-02-15T06:44:48;52.42;;;28.40;;
23519;SDS011;11936;50.820;4.336;2023-02-15T06:47:14;48.50;;;28.02;;
23519;SDS011;11936;50.820;4.336;2023-02-15T06:49:39;40.03;;;25.40;;
23519;SDS011;11936;50.820;4.336;2023-02-15T06:52:05;58.35;;;28.20;;
23519;SDS011;11936;50.820;4.336;2023-02-15T06:54:31;59.15;;;27.63;;
23519;SDS011;11936;50.820;4.336;2023-02-15T06:56:56;66.72;;;29.45;;
23519;SDS011;11936;50.820;4.336;2023-02-15T06:59:22;79.75;;;30.50;;
23519;SDS011;11936;50.820;4.336;2023-02-15T07:01:47;84.28;;;33.47;;
23519;SDS011;11936;50.820;4.336;2023-02-15T07:04:14;96.70;;;33.92;;
23519;SDS011;11936;50.820;4.336;2023-02-15T07:06:39;136.30;;;38.40;;
23519;SDS011;11936;50.820;4.336;2023-02-15T07:09:05;166.20;;;40.90;;
23519;SDS011;11936;50.820;4.336;2023-02-15T07:11:31;155.02;;;39.72;;
23519;SDS011;11936;50.820;4.336;2023-02-15T07:14:15;147.15;;;41.45;;
23519;SDS011;11936;50.820;4.336;2023-02-15T07:16:41;173.65;;;44.05;;
23519;SDS011;11936;50.820;4.336;2023-02-15T07:19:06;185.07;;;42.67;;
23519;SDS011;11936;50.820;4.336;2023-02-15T07:21:32;173.60;;;41.00;;
23519;SDS011;11936;50.820;4.336;2023-02-15T07:23:59;167.55;;;41.33;;
23519;SDS011;11936;50.820;4.336;2023-02-15T07:26:25;212.93;;;45.40;;
23519;SDS011;11936;50.820;4.336;2023-02-15T07:28:50;144.73;;;40.25;;
23519;SDS011;11936;50.820;4.336;2023-02-15T07:31:16;184.38;;;42.28;;
23519;SDS011;11936;50.820;4.336;2023-02-15T07:33:42;128.88;;;36.30;;
23519;SDS011;11936;50.820;4.336;2023-02-15T07:36:07;96.25;;;32.22;;
23519;SDS011;11936;50.820;4.336;2023-02-15T07:38:36;65.45;;;29.83;;
23519;SDS011;11936;50.820;4.336;2023-02-15T07:41:04;63.38;;;28.15;;
23519;SDS011;11936;50.820;4.336;2023-02-15T07:43:33;66.65;;;27.60;;
23519;SDS011;11936;50.820;4.336;2023-02-15T07:46:00;54.83;;;25.08;;
23519;SDS011;11936;50.820;4.336;2023-02-15T07:48:31;63.30;;;28.48;;
23519;SDS011;11936;50.820;4.336;2023-02-15T07:51:00;54.55;;;26.60;;
23519;SDS011;11936;50.820;4.336;2023-02-15T07:53:27;68.82;;;26.20;;
23519;SDS011;11936;50.820;4.336;2023-02-15T07:55:53;94.70;;;30.48;;
23519;SDS011;11936;50.820;4.336;2023-02-15T07:58:20;101.13;;;32.22;;
23519;SDS011;11936;50.820;4.336;2023-02-15T08:00:46;114.00;;;30.73;;
23519;SDS011;11936;50.820;4.336;2023-02-15T08:03:26;93.95;;;30.15;;
23519;SDS011;11936;50.820;4.336;2023-02-15T08:05:56;68.53;;;28.13;;
23519;SDS011;11936;50.820;4.336;2023-02-15T08:08:24;205.95;;;38.53;;
23519;SDS011;11936;50.820;4.336;2023-02-15T08:11:00;170.75;;;36.47;;
23519;SDS011;11936;50.820;4.336;2023-02-15T08:13:57;98.15;;;32.65;;
23519;SDS011;11936;50.820;4.336;2023-02-15T08:19:30;102.80;;;31.63;;
23519;SDS011;11936;50.820;4.336;2023-02-15T08:21:58;69.47;;;27.95;;
23519;SDS011;11936;50.820;4.336;2023-02-15T08:24:26;83.88;;;27.30;;
23519;SDS011;11936;50.820;4.336;2023-02-15T08:26:54;100.07;;;29.58;;
23519;SDS011;11936;50.820;4.336;2023-02-15T08:29:21;119.30;;;32.25;;
23519;SDS011;11936;50.820;4.336;2023-02-15T08:31:49;91.63;;;29.55;;
23519;SDS011;11936;50.820;4.336;2023-02-15T08:34:18;99.03;;;30.48;;
23519;SDS011;11936;50.820;4.336;2023-02-15T08:36:44;118.43;;;30.88;;
23519;SDS011;11936;50.820;4.336;2023-02-15T08:39:10;54.85;;;27.80;;
23519;SDS011;11936;50.820;4.336;2023-02-15T08:41:37;58.65;;;25.35;;
23519;SDS011;11936;50.820;4.336;2023-02-15T08:44:06;44.90;;;24.77;;
23519;SDS011;11936;50.820;4.336;2023-02-15T08:46:33;76.72;;;29.30;;
23519;SDS011;11936;50.820;4.336;2023-02-15T08:49:00;75.47;;;28.27;;
23519;SDS011;11936;50.820;4.336;2023-02-15T08:51:27;104.90;;;31.15;;
23519;SDS011;11936;50.820;4.336;2023-02-15T08:53:55;62.80;;;27.00;;
23519;SDS011;11936;50.820;4.336;2023-02-15T08:56:24;84.32;;;30.45;;
23519;SDS011;11936;50.820;4.336;2023-02-15T08:58:52;67.95;;;31.02;;
23519;SDS011;11936;50.820;4.336;2023-02-15T09:01:19;102.57;;;36.45;;
23519;SDS011;11936;50.820;4.336;2023-02-15T09:03:48;63.05;;;30.77;;
23519;SDS011;11936;50.820;4.336;2023-02-15T09:06:15;56.90;;;31.48;;
23519;SDS011;11936;50.820;4.336;2023-02-15T09:08:42;65.63;;;31.92;;
23519;SDS011;11936;50.820;4.336;2023-02-15T09:11:12;68.82;;;34.35;;
23519;SDS011;11936;50.820;4.336;2023-02-15T09:13:41;77.53;;;33.42;;
23519;SDS011;11936;50.820;4.336;2023-02-15T09:16:08;59.55;;;31.95;;
23519;SDS011;11936;50.820;4.336;2023-02-15T09:18:36;70.65;;;33.40;;
23519;SDS011;11936;50.820;4.336;2023-02-15T09:21:04;70.95;;;32.22;;
23519;SDS011;11936;50.820;4.336;2023-02-15T09:23:31;65.55;;;32.05;;
23519;SDS011;11936;50.820;4.336;2023-02-15T09:25:56;61.55;;;31.65;;
23519;SDS011;11936;50.820;4.336;2023-02-15T09:28:22;68.68;;;32.60;;
23519;SDS011;11936;50.820;4.336;2023-02-15T09:30:47;66.57;;;33.05;;
23519;SDS011;11936;50.820;4.336;2023-02-15T09:33:13;55.33;;;31.85;;
23519;SDS011;11936;50.820;4.336;2023-02-15T09:35:38;58.15;;;31.83;;
23519;SDS011;11936;50.820;4.336;2023-02-15T09:38:04;59.72;;;32.90;;
23519;SDS011;11936;50.820;4.336;2023-02-15T09:40:31;66.13;;;33.22;;
23519;SDS011;11936;50.820;4.336;2023-02-15T09:43:20;74.70;;;33.58;;
23519;SDS011;11936;50.820;4.336;2023-02-15T09:46:10;59.45;;;33.65;;
23519;SDS011;11936;50.820;4.336;2023-02-15T09:48:52;63.67;;;31.17;;
23519;SDS011;11936;50.820;4.336;2023-02-15T09:54:29;51.17;;;28.80;;
23519;SDS011;11936;50.820;4.336;2023-02-15T10:07:54;51.53;;;27.17;;
23519;SDS011;11936;50.820;4.336;2023-02-15T10:16:17;69.47;;;30.17;;
23519;SDS011;11936;50.820;4.336;2023-02-15T10:27:12;50.13;;;27.52;;
23519;SDS011;11936;50.820;4.336;2023-02-15T10:29:48;47.88;;;27.48;;
23519;SDS011;11936;50.820;4.336;2023-02-15T10:32:37;48.83;;;26.98;;
23519;SDS011;11936;50.820;4.336;2023-02-15T10:41:07;51.65;;;25.73;;
23519;SDS011;11936;50.820;4.336;2023-02-15T10:47:17;55.90;;;24.80;;
23519;SDS011;11936;50.820;4.336;2023-02-15T10:53:08;44.05;;;23.15;;
23519;SDS011;11936;50.820;4.336;2023-02-15T10:55:55;40.45;;;23.67;;
23519;SDS011;11936;50.820;4.336;2023-02-15T11:01:34;45.53;;;24.38;;
23519;SDS011;11936;50.820;4.336;2023-02-15T11:04:26;51.60;;;24.85;;
23519;SDS011;11936;50.820;4.336;2023-02-15T11:07:38;64.00;;;31.13;;
23519;SDS011;11936;50.820;4.336;2023-02-15T11:13:32;38.30;;;21.65;;
23519;SDS011;11936;50.820;4.336;2023-02-15T11:16:08;37.85;;;24.05;;
23519;SDS011;11936;50.820;4.336;2023-02-15T11:18:48;41.45;;;24.35;;
23519;SDS011;11936;50.820;4.336;2023-02-15T11:23:54;39.22;;;22.70;;
23519;SDS011;11936;50.820;4.336;2023-02-15T11:31:44;45.75;;;25.13;;
23519;SDS011;11936;50.820;4.336;2023-02-15T11:34:34;48.70;;;25.27;;
23519;SDS011;11936;50.820;4.336;2023-02-15T11:37:05;41.17;;;24.10;;
23519;SDS011;11936;50.820;4.336;2023-02-15T11:39:35;54.88;;;25.88;;
23519;SDS011;11936;50.820;4.336;2023-02-15T11:42:09;47.92;;;25.60;;
23519;SDS011;11936;50.820;4.336;2023-02-15T11:44:43;48.08;;;25.83;;
23519;SDS011;11936;50.820;4.336;2023-02-15T11:47:10;50.20;;;26.13;;
23519;SDS011;11936;50.820;4.336;2023-02-15T11:49:36;52.97;;;25.33;;
23519;SDS011;11936;50.820;4.336;2023-02-15T11:52:08;46.15;;;27.70;;
23519;SDS011;11936;50.820;4.336;2023-02-15T11:55:11;44.17;;;26.35;;
23519;SDS011;11936;50.820;4.336;2023-02-15T11:57:38;46.63;;;25.08;;
23519;SDS011;11936;50.820;4.336;2023-02-15T12:00:13;49.72;;;28.80;;
23519;SDS011;11936;50.820;4.336;2023-02-15T12:02:49;47.25;;;26.90;;
23519;SDS011;11936;50.820;4.336;2023-02-15T12:05:20;51.90;;;28.13;;
23519;SDS011;11936;50.820;4.336;2023-02-15T12:08:00;48.08;;;27.42;;
23519;SDS011;11936;50.820;4.336;2023-02-15T12:10:33;53.90;;;26.77;;
23519;SDS011;11936;50.820;4.336;2023-02-15T12:13:13;47.60;;;26.40;;
23519;SDS011;11936;50.820;4.336;2023-02-15T12:15:44;53.45;;;27.83;;
23519;SDS011;11936;50.820;4.336;2023-02-15T12:21:12;50.22;;;27.50;;
23519;SDS011;11936;50.820;4.336;2023-02-15T12:23:48;52.67;;;29.73;;
23519;SDS011;11936;50.820;4.336;2023-02-15T12:26:23;52.85;;;30.52;;
23519;SDS011;11936;50.820;4.336;2023-02-15T12:28:54;48.58;;;28.67;;
23519;SDS011;11936;50.820;4.336;2023-02-15T12:31:26;55.20;;;30.83;;
23519;SDS011;11936;50.820;4.336;2023-02-15T12:34:07;53.25;;;29.58;;
23519;SDS011;11936;50.820;4.336;2023-02-15T12:36:51;58.90;;;29.50;;
23519;SDS011;11936;50.820;4.336;2023-02-15T12:39:24;50.50;;;28.38;;
23519;SDS011;11936;50.820;4.336;2023-02-15T12:44:25;54.13;;;29.77;;
23519;SDS011;11936;50.820;4.336;2023-02-15T12:47:04;46.75;;;28.40;;
23519;SDS011;11936;50.820;4.336;2023-02-15T12:49:36;47.37;;;30.00;;
23519;SDS011;11936;50.820;4.336;2023-02-15T12:52:10;54.58;;;29.00;;
23519;SDS011;11936;50.820;4.336;2023-02-15T12:54:49;50.85;;;28.95;;
23519;SDS011;11936;50.820;4.336;2023-02-15T13:00:32;50.83;;;28.40;;
23519;SDS011;11936;50.820;4.336;2023-02-15T13:02:46;54.20;;;29.77;;
23519;SDS011;11936;50.820;4.336;2023-02-15T13:07:55;56.67;;;28.92;;
23519;SDS011;11936;50.820;4.336;2023-02-15T13:10:25;52.30;;;29.35;;
23519;SDS011;11936;50.820;4.336;2023-02-15T13:13:02;47.58;;;28.50;;
23519;SDS011;11936;50.820;4.336;2023-02-15T13:15:36;46.63;;;29.13;;
23519;SDS011;11936;50.820;4.336;2023-02-15T13:18:05;49.65;;;28.48;;
23519;SDS011;11936;50.820;4.336;2023-02-15T13:20:39;47.88;;;30.35;;
23519;SDS011;11936;50.820;4.336;2023-02-15T13:23:12;54.50;;;30.67;;
23519;SDS011;11936;50.820;4.336;2023-02-15T13:25:49;45.45;;;28.73;;
23519;SDS011;11936;50.820;4.336;2023-02-15T13:28:16;52.95;;;31.50;;
23519;SDS011;11936;50.820;4.336;2023-02-15T13:30:45;53.78;;;30.73;;
23519;SDS011;11936;50.820;4.336;2023-02-15T13:35:40;50.25;;;29.60;;
23519;SDS011;11936;50.820;4.336;2023-02-15T13:38:15;46.47;;;30.85;;
23519;SDS011;11936;50.820;4.336;2023-02-15T13:40:55;53.25;;;31.15;;
23519;SDS011;11936;50.820;4.336;2023-02-15T13:46:11;50.78;;;29.98;;
23519;SDS011;11936;50.820;4.336;2023-02-15T14:08:12;55.33;;;32.28;;
23519;SDS011;11936;50.820;4.336;2023-02-15T14:13:50;56.33;;;32.97;;
23519;SDS011;11936;50.820;4.336;2023-02-15T14:21:48;61.15;;;35.08;;
23519;SDS011;11936;50.820;4.336;2023-02-15T14:27:22;61.03;;;35.83;;
23519;SDS011;11936;50.820;4.336;2023-02-15T14:29:59;63.88;;;35.35;;
23519;SDS011;11936;50.820;4.336;2023-02-15T14:34:59;57.75;;;33.95;;
23519;SDS011;11936;50.820;4.336;2023-02-15T14:37:39;64.72;;;34.30;;
23519;SDS011;11936;50.820;4.336;2023-02-15T14:40:34;60.80;;;35.15;;
23519;SDS011;11936;50.820;4.336;2023-02-15T14:46:24;58.20;;;34.85;;
23519;SDS011;11936;50.820;4.336;2023-02-15T14:48:55;61.28;;;34.05;;
23519;SDS011;11936;50.820;4.336;2023-02-15T14:56:43;62.72;;;37.35;;
23519;SDS011;11936;50.820;4.336;2023-02-15T14:59:21;66.50;;;38.55;;
23519;SDS011;11936;50.820;4.336;2023-02-15T15:01:58;61.28;;;37.25;;
23519;SDS011;11936;50.820;4.336;2023-02-15T15:04:35;59.15;;;36.00;;
23519;SDS011;11936;50.820;4.336;2023-02-15T15:07:09;58.88;;;36.30;;
23519;SDS011;11936;50.820;4.336;2023-02-15T15:12:43;66.28;;;38.58;;
23519;SDS011;11936;50.820;4.336;2023-02-15T15:15:15;72.95;;;37.55;;
23519;SDS011;11936;50.820;4.336;2023-02-15T15:18:10;66.30;;;38.80;;
23519;SDS011;11936;50.820;4.336;2023-02-15T15:20:55;60.80;;;36.00;;
23519;SDS011;11936;50.820;4.336;2023-02-15T15:25:57;59.05;;;35.05;;
23519;SDS011;11936;50.820;4.336;2023-02-15T15:47:26;56.67;;;34.92;;
23519;SDS011;11936;50.820;4.336;2023-02-15T15:50:15;60.65;;;35.65;;
23519;SDS011;11936;50.820;4.336;2023-02-15T15:52:49;63.08;;;35.33;;
23519;SDS011;11936;50.820;4.336;2023-02-15T15:55:18;60.97;;;36.33;;
23519;SDS011;11936;50.820;4.336;2023-02-15T15:57:48;62.28;;;36.47;;
23519;SDS011;11936;50.820;4.336;2023-02-15T16:00:24;59.42;;;36.08;;
23519;SDS011;11936;50.820;4.336;2023-02-15T16:02:57;58.90;;;36.03;;
23519;SDS011;11936;50.820;4.336;2023-02-15T16:05:23;58.90;;;34.60;;
23519;SDS011;11936;50.820;4.336;2023-02-15T16:08:08;57.33;;;34.85;;
23519;SDS011;11936;50.820;4.336;2023-02-15T16:10:34;58.03;;;36.05;;
23519;SDS011;11936;50.820;4.336;2023-02-15T16:13:02;59.78;;;35.90;;
23519;SDS011;11936;50.820;4.336;2023-02-15T16:15:36;62.08;;;36.35;;
23519;SDS011;11936;50.820;4.336;2023-02-15T16:18:18;65.07;;;36.63;;
23519;SDS011;11936;50.820;4.336;2023-02-15T16:20:59;62.67;;;37.15;;
23519;SDS011;11936;50.820;4.336;2023-02-15T16:28:50;65.93;;;35.53;;
23519;SDS011;11936;50.820;4.336;2023-02-15T16:31:20;57.83;;;35.72;;
23519;SDS011;11936;50.820;4.336;2023-02-15T16:33:52;55.92;;;34.25;;
23519;SDS011;11936;50.820;4.336;2023-02-15T16:36:22;59.78;;;35.45;;
23519;SDS011;11936;50.820;4.336;2023-02-15T16:41:22;60.03;;;37.47;;
23519;SDS011;11936;50.820;4.336;2023-02-15T16:43:55;60.58;;;35.83;;
23519;SDS011;11936;50.820;4.336;2023-02-15T16:46:38;60.95;;;35.75;;
23519;SDS011;11936;50.820;4.336;2023-02-15T16:49:21;55.67;;;36.15;;
23519;SDS011;11936;50.820;4.336;2023-02-15T16:51:56;57.92;;;35.13;;
23519;SDS011;11936;50.820;4.336;2023-02-15T16:54:27;62.97;;;37.47;;
23519;SDS011;11936;50.820;4.336;2023-02-15T16:56:56;56.92;;;35.08;;
23519;SDS011;11936;50.820;4.336;2023-02-15T16:59:35;65.57;;;35.50;;
23519;SDS011;11936;50.820;4.336;2023-02-15T17:05:10;57.00;;;34.55;;
23519;SDS011;11936;50.820;4.336;2023-02-15T17:07:51;53.33;;;35.67;;
23519;SDS011;11936;50.820;4.336;2023-02-15T17:10:38;59.92;;;35.10;;
23519;SDS011;11936;50.820;4.336;2023-02-15T17:13:10;60.75;;;35.75;;
23519;SDS011;11936;50.820;4.336;2023-02-15T17:15:38;61.22;;;35.78;;
23519;SDS011;11936;50.820;4.336;2023-02-15T17:18:10;62.10;;;36.25;;
23519;SDS011;11936;50.820;4.336;2023-02-15T17:20:41;56.15;;;34.35;;
23519;SDS011;11936;50.820;4.336;2023-02-15T17:28:45;67.13;;;36.83;;
23519;SDS011;11936;50.820;4.336;2023-02-15T17:31:17;59.42;;;36.28;;
23519;SDS011;11936;50.820;4.336;2023-02-15T17:33:44;60.83;;;36.50;;
23519;SDS011;11936;50.820;4.336;2023-02-15T17:41:43;63.10;;;35.55;;
23519;SDS011;11936;50.820;4.336;2023-02-15T17:44:09;55.00;;;35.78;;
23519;SDS011;11936;50.820;4.336;2023-02-15T17:46:38;58.88;;;36.47;;
23519;SDS011;11936;50.820;4.336;2023-02-15T17:49:05;59.08;;;35.50;;
23519;SDS011;11936;50.820;4.336;2023-02-15T17:51:32;59.75;;;34.60;;
23519;SDS011;11936;50.820;4.336;2023-02-15T17:54:00;61.15;;;37.08;;
23519;SDS011;11936;50.820;4.336;2023-02-15T17:56:45;56.50;;;35.80;;